Time;durP1;ratioP1;P1;durP2;ratioP2;P2;SDS_P1;SDS_P2;PMS_P1;PMS_P2;Temp;Humidity;BMP_temperature;BMP_pressure;BME280_temperature;BME280_humidity;BME280_pressure;Samples;Min_cycle;Max_cycle;Signal;HPM_P1;HPM_P2
2021/04/28 00:00:28;;;;;;;14.60;12.70;;;;;;;7.81;62.62;98737.78;4977706;28;20231;-84
2021/04/28 00:03:01;;;;;;;15.80;12.23;;;;;;;7.69;62.93;98742.22;4994095;28;20242;-83
2021/04/28 00:05:35;;;;;;;14.03;12.50;;;;;;;7.50;64.24;98734.22;4978154;28;20227;-82
2021/04/28 00:08:26;;;;;;;13.53;12.00;;;;;;;7.53;63.48;98733.78;4993130;28;20216;-84
2021/04/28 00:10:56;;;;;;;15.73;12.27;;;;;;;7.42;64.32;98736.34;4977828;28;20225;-83
2021/04/28 00:13:28;;;;;;;14.47;12.67;;;;;;;7.36;64.23;98723.94;4974501;28;20641;-83
2021/04/28 00:16:24;;;;;;;13.87;12.40;;;;;;;7.57;63.70;98736.00;4990450;28;20682;-82
2021/04/28 00:19:05;;;;;;;16.00;13.17;;;;;;;7.42;64.20;98731.84;4978276;28;20295;-83
2021/04/28 00:21:39;;;;;;;16.23;13.03;;;;;;;7.42;64.10;98717.69;4994068;28;20214;-83
2021/04/28 00:24:13;;;;;;;14.70;12.87;;;;;;;7.41;63.84;98705.44;5001936;23;20246;-84
2021/04/28 00:26:45;;;;;;;15.37;13.77;;;;;;;7.45;63.87;98714.59;4993431;28;20286;-84
2021/04/28 00:29:16;;;;;;;16.17;13.67;;;;;;;7.39;64.59;98720.81;4976671;28;20239;-82
2021/04/28 00:32:03;;;;;;;16.20;13.87;;;;;;;7.43;64.79;98717.47;4994383;28;20220;-83
2021/04/28 00:34:32;;;;;;;17.03;14.10;;;;;;;7.43;64.95;98712.16;4992811;28;20231;-83
2021/04/28 00:37:08;;;;;;;18.77;13.90;;;;;;;7.41;65.02;98708.09;4993975;28;20229;-82
2021/04/28 00:39:46;;;;;;;16.50;14.70;;;;;;;7.51;64.53;98719.06;4993546;28;20223;-84
2021/04/28 00:42:35;;;;;;;17.30;14.77;;;;;;;7.56;64.36;98705.06;4976462;28;20227;-82
2021/04/28 00:45:18;;;;;;;17.67;14.87;;;;;;;7.46;64.84;98705.56;4993881;28;20263;-84
2021/04/28 00:47:56;;;;;;;16.13;14.20;;;;;;;7.36;64.77;98698.09;4992524;28;20239;-83
2021/04/28 00:50:37;;;;;;;16.10;14.43;;;;;;;7.47;64.73;98700.00;4973139;28;20248;-84
2021/04/28 00:53:22;;;;;;;15.93;14.20;;;;;;;7.50;64.54;98710.25;4978940;28;20243;-84
2021/04/28 00:56:05;;;;;;;16.67;14.80;;;;;;;7.38;65.18;98701.34;4993967;28;20242;-84
2021/04/28 00:58:44;;;;;;;18.80;14.70;;;;;;;7.37;65.29;98705.03;4993767;28;20233;-84
2021/04/28 01:01:17;;;;;;;19.47;15.83;;;;;;;7.27;65.29;98686.09;4976718;28;20221;-84
2021/04/28 01:04:08;;;;;;;17.20;14.97;;;;;;;7.27;65.69;98699.41;4976483;28;20594;-83
2021/04/28 01:06:44;;;;;;;17.97;15.30;;;;;;;7.22;65.45;98698.44;4978210;28;20252;-83
2021/04/28 01:09:18;;;;;;;18.40;15.13;;;;;;;7.29;65.53;98707.19;4993716;28;20263;-83
2021/04/28 01:11:55;;;;;;;16.33;14.47;;;;;;;7.19;65.65;98705.00;4976208;28;20251;-83
2021/04/28 01:14:27;;;;;;;16.57;14.73;;;;;;;7.23;66.19;98703.53;4990600;23;20240;-84
2021/04/28 01:16:59;;;;;;;16.07;14.43;;;;;;;7.18;66.69;98703.41;4994198;28;20244;-83
2021/04/28 01:19:38;;;;;;;19.93;15.73;;;;;;;7.20;66.24;98706.66;4994269;28;20229;-84
2021/04/28 01:22:13;;;;;;;18.47;14.63;;;;;;;7.26;65.95;98700.44;4994101;28;20220;-81
2021/04/28 01:25:36;;;;;;;17.60;14.47;;;;;;;7.22;66.08;98703.78;4993331;23;20243;-84
2021/04/28 01:28:06;;;;;;;20.50;14.93;;;;;;;7.16;66.68;98700.13;4973260;28;20224;-83
2021/04/28 01:31:14;;;;;;;19.03;15.20;;;;;;;7.13;66.57;98700.59;4994956;23;20220;-84
2021/04/28 01:33:54;;;;;;;17.53;14.70;;;;;;;7.13;66.02;98695.25;4993070;28;20272;-82
2021/04/28 01:36:34;;;;;;;18.17;15.30;;;;;;;7.06;66.81;98700.63;4993096;28;20223;-83
2021/04/28 01:39:17;;;;;;;16.53;14.73;;;;;;;6.93;66.61;98679.47;5001333;23;20232;-82
2021/04/28 01:41:53;;;;;;;16.03;13.77;;;;;;;6.93;67.12;98692.78;4994088;28;20300;-84
2021/04/28 01:44:24;;;;;;;20.07;15.43;;;;;;;6.80;67.52;98679.59;4977517;28;20252;-83
2021/04/28 01:46:58;;;;;;;15.60;13.37;;;;;;;6.87;67.46;98698.97;4993713;28;20698;-83
2021/04/28 01:49:28;;;;;;;15.70;14.00;;;;;;;6.78;67.65;98680.81;4962908;28;20269;-82
2021/04/28 01:52:05;;;;;;;18.27;14.20;;;;;;;6.85;67.73;98694.91;4978600;28;20252;-83
2021/04/28 01:54:48;;;;;;;16.50;14.00;;;;;;;6.88;68.40;98694.47;4980668;28;20228;-84
2021/04/28 01:57:35;;;;;;;15.77;14.07;;;;;;;6.80;68.29;98689.41;4981150;28;20192;-84
2021/04/28 02:00:31;;;;;;;15.33;13.67;;;;;;;6.68;69.45;98699.94;4998089;28;20256;-83
2021/04/28 02:03:13;;;;;;;15.73;14.03;;;;;;;6.67;69.35;98694.84;4997998;28;20215;-84
2021/04/28 02:06:01;;;;;;;17.50;15.63;;;;;;;6.43;71.54;98688.47;4984220;28;20236;-83
2021/04/28 02:08:44;;;;;;;20.23;16.97;;;;;;;6.40;72.37;98694.22;4997950;28;20224;-82
2021/04/28 02:12:32;;;;;;;20.93;18.27;;;;;;;6.29;74.20;98686.94;4998516;28;20292;-84
2021/04/28 02:15:42;;;;;;;20.77;18.60;;;;;;;6.16;75.78;98691.28;4998543;28;20207;-83
2021/04/28 02:18:40;;;;;;;21.43;19.17;;;;;;;6.16;76.14;98695.78;4993264;28;20667;-83
2021/04/28 02:21:09;;;;;;;21.47;19.27;;;;;;;6.14;76.84;98696.03;4977024;28;20250;-81
2021/04/28 02:24:00;;;;;;;21.87;19.63;;;;;;;5.97;76.98;98676.25;4995066;28;20267;-82
2021/04/28 02:26:59;;;;;;;22.60;20.10;;;;;;;5.98;77.57;98674.44;4995304;28;20264;-80
2021/04/28 02:29:40;;;;;;;22.93;20.43;;;;;;;6.03;77.45;98680.75;4997545;28;20202;-81
2021/04/28 02:32:16;;;;;;;22.17;19.97;;;;;;;5.96;77.96;98679.16;5003331;23;20196;-80
2021/04/28 02:35:27;;;;;;;22.20;19.87;;;;;;;5.83;78.08;98676.53;4986533;23;20243;-80
2021/04/28 02:38:28;;;;;;;22.47;19.50;;;;;;;5.75;79.34;98672.25;4964325;28;20219;-83
2021/04/28 02:41:29;;;;;;;21.40;19.10;;;;;;;5.75;78.78;98674.91;4981575;28;20220;-83
2021/04/28 02:44:26;;;;;;;21.70;19.40;;;;;;;5.65;79.96;98679.88;5004174;23;20243;-81
2021/04/28 02:47:09;;;;;;;24.97;19.27;;;;;;;5.56;79.76;98673.16;4969987;28;20236;-82
2021/04/28 02:50:16;;;;;;;20.83;17.87;;;;;;;5.46;80.27;98670.16;5005437;23;20251;-82
2021/04/28 02:53:27;;;;;;;21.70;18.83;;;;;;;5.49;80.48;98670.53;5004863;28;20226;-82
2021/04/28 02:56:13;;;;;;;23.50;18.10;;;;;;;5.49;80.16;98659.09;5017404;28;20678;-82
2021/04/28 02:59:07;;;;;;;21.83;19.53;;;;;;;5.40;80.71;98647.09;5017765;28;20198;-83
2021/04/28 03:02:01;;;;;;;23.87;19.63;;;;;;;5.51;80.74;98663.16;5007677;23;20219;-82
2021/04/28 03:04:34;;;;;;;24.93;20.33;;;;;;;5.56;80.54;98667.84;4966313;28;20224;-81
2021/04/28 03:07:18;;;;;;;23.30;19.17;;;;;;;5.32;80.72;98640.97;4993753;23;20235;-83
2021/04/28 03:10:17;;;;;;;24.07;20.83;;;;;;;5.45;80.61;98653.41;4998037;28;20639;-82
2021/04/28 03:13:01;;;;;;;21.73;19.37;;;;;;;5.51;81.32;98663.16;5006875;23;20231;-81
2021/04/28 03:16:00;;;;;;;21.73;19.43;;;;;;;5.56;80.81;98676.63;4980108;23;20307;-81
2021/04/28 03:18:37;;;;;;;23.20;19.83;;;;;;;5.55;81.02;98664.38;5122441;23;20239;-81
2021/04/28 03:21:18;;;;;;;21.47;19.17;;;;;;;5.68;81.08;98687.44;4986679;28;20254;-80
2021/04/28 03:23:47;;;;;;;21.33;18.53;;;;;;;5.64;80.93;98686.22;5017523;28;20220;-83
2021/04/28 03:26:18;;;;;;;23.33;20.80;;;;;;;5.59;81.26;98670.91;5017443;28;20292;-82
2021/04/28 03:29:17;;;;;;;21.87;19.03;;;;;;;5.74;81.10;98670.63;5017130;28;20235;-82
2021/04/28 03:31:53;;;;;;;22.60;19.40;;;;;;;5.88;80.39;98687.38;5010151;23;20238;-82
2021/04/28 03:34:42;;;;;;;23.77;19.63;;;;;;;5.99;80.71;98687.50;4982591;28;20234;-81
2021/04/28 03:37:18;;;;;;;23.03;19.97;;;;;;;5.99;80.28;98682.19;5109784;23;20184;-81
2021/04/28 03:40:01;;;;;;;22.00;18.90;;;;;;;5.96;79.70;98668.53;4997952;28;20222;-82
2021/04/28 03:42:59;;;;;;;24.03;20.13;;;;;;;5.85;80.12;98667.31;4981593;23;20295;-80
2021/04/28 03:45:31;;;;;;;22.57;20.07;;;;;;;5.95;81.11;98680.19;4998365;28;20267;-82
2021/04/28 03:48:19;;;;;;;25.97;20.27;;;;;;;5.90;80.91;98691.44;4997837;28;20224;-80
2021/04/28 03:50:47;;;;;;;23.00;20.23;;;;;;;5.96;81.14;98690.63;4997686;28;20188;-82
2021/04/28 03:53:52;;;;;;;24.77;20.97;;;;;;;6.02;81.44;98703.03;4997890;28;20210;-81
2021/04/28 03:56:26;;;;;;;24.63;21.10;;;;;;;5.98;81.27;98701.00;4997319;28;20231;-82
2021/04/28 03:59:01;;;;;;;22.50;20.10;;;;;;;6.15;80.90;98702.16;4997068;23;20260;-83
2021/04/28 04:01:31;;;;;;;22.87;19.67;;;;;;;5.98;80.71;98669.09;4978863;29;20257;-81
2021/04/28 04:04:09;;;;;;;23.13;19.67;;;;;;;6.15;80.58;98686.22;4984933;23;20256;-81
2021/04/28 04:07:24;;;;;;;23.67;20.23;;;;;;;6.23;80.47;98709.88;5023411;23;20235;-80
2021/04/28 04:10:16;;;;;;;23.63;20.47;;;;;;;6.12;80.97;98706.06;5008693;23;20243;-82
2021/04/28 04:12:58;;;;;;;22.40;20.00;;;;;;;6.00;80.86;98694.47;5008360;23;20283;-82
2021/04/28 04:15:56;;;;;;;23.97;20.47;;;;;;;6.23;80.98;98719.72;5001683;28;20214;-82
2021/04/28 04:18:51;;;;;;;21.93;19.63;;;;;;;6.21;80.47;98709.28;5003334;28;20235;-81
2021/04/28 04:21:26;;;;;;;22.37;19.63;;;;;;;6.35;79.97;98710.00;4998756;28;20227;-81
2021/04/28 04:24:26;;;;;;;21.73;19.33;;;;;;;6.47;79.98;98713.63;5016670;28;20226;-83
2021/04/28 04:27:13;;;;;;;22.37;19.03;;;;;;;6.58;79.31;98713.72;5003539;28;20210;-80
2021/04/28 04:30:19;;;;;;;23.00;19.63;;;;;;;6.67;79.48;98713.50;5010402;28;20239;-80
2021/04/28 04:33:10;;;;;;;23.87;19.47;;;;;;;6.82;78.84;98709.44;5002708;28;20245;-83
2021/04/28 04:36:46;;;;;;;21.10;18.40;;;;;;;6.91;78.20;98704.66;5015183;28;20234;-82
2021/04/28 04:39:49;;;;;;;21.90;19.43;;;;;;;7.16;77.32;98715.31;5015896;28;20191;-83
2021/04/28 04:42:55;;;;;;;21.80;19.07;;;;;;;7.22;77.27;98719.75;4962389;28;20232;-83
2021/04/28 04:45:57;;;;;;;22.27;19.00;;;;;;;7.34;76.72;98728.66;5013110;28;20234;-82
2021/04/28 04:48:32;;;;;;;22.10;19.57;;;;;;;7.48;76.69;98722.16;5014001;28;20227;-83
2021/04/28 04:51:00;;;;;;;22.10;19.40;;;;;;;7.58;75.60;98725.13;4996091;28;20227;-83
2021/04/28 04:53:39;;;;;;;23.80;19.03;;;;;;;7.76;75.24;98729.63;5012730;28;20337;-82
2021/04/28 04:56:06;;;;;;;21.27;19.07;;;;;;;7.71;75.10;98729.47;5010955;28;20242;-82
2021/04/28 04:58:34;;;;;;;21.63;18.93;;;;;;;7.86;74.71;98722.72;4994917;28;20183;-82
2021/04/28 05:01:04;;;;;;;21.07;17.80;;;;;;;8.00;74.05;98733.22;4990462;28;20247;-83
2021/04/28 05:03:32;;;;;;;22.40;18.30;;;;;;;8.13;73.69;98739.22;4988868;28;20232;-83
2021/04/28 05:06:01;;;;;;;20.67;18.47;;;;;;;8.25;73.19;98726.75;4988443;28;20655;-83
2021/04/28 05:08:32;;;;;;;19.87;17.77;;;;;;;8.32;72.90;98726.66;4987239;28;20228;-83
2021/04/28 05:10:59;;;;;;;20.13;18.03;;;;;;;8.51;72.22;98728.25;4988238;28;20242;-82
2021/04/28 05:13:28;;;;;;;20.93;18.00;;;;;;;8.54;71.09;98701.09;4987389;28;20235;-83
2021/04/28 05:15:55;;;;;;;20.13;17.00;;;;;;;8.74;71.18;98704.25;4970872;28;20266;-82
2021/04/28 05:18:22;;;;;;;19.37;17.27;;;;;;;8.97;70.35;98716.84;4987143;28;20241;-83
2021/04/28 05:20:54;;;;;;;20.47;17.63;;;;;;;9.04;69.90;98724.75;4986823;28;20246;-83
2021/04/28 05:23:22;;;;;;;19.77;17.10;;;;;;;9.24;68.58;98727.88;5007676;28;20262;-83
2021/04/28 05:26:09;;;;;;;18.53;16.37;;;;;;;9.40;68.02;98723.69;5007741;28;20306;-82
2021/04/28 05:28:38;;;;;;;18.20;16.40;;;;;;;9.54;67.74;98722.41;4991063;28;20284;-82
2021/04/28 05:31:09;;;;;;;19.53;16.43;;;;;;;9.76;66.79;98727.94;5007502;28;20291;-83
2021/04/28 05:33:40;;;;;;;17.40;15.57;;;;;;;9.88;66.22;98729.56;5009161;28;20293;-83
2021/04/28 05:36:08;;;;;;;16.27;14.50;;;;;;;10.04;65.17;98718.09;4994092;28;20230;-84
2021/04/28 05:38:38;;;;;;;16.20;14.60;;;;;;;10.11;64.58;98707.25;4995100;28;20293;-82
2021/04/28 05:41:05;;;;;;;15.73;14.17;;;;;;;10.26;64.12;98723.66;4993953;28;20705;-81
2021/04/28 05:43:34;;;;;;;17.83;14.13;;;;;;;10.34;63.85;98709.88;5011208;28;20574;-83
2021/04/28 05:46:02;;;;;;;15.17;13.60;;;;;;;10.49;63.05;98722.72;5011235;28;20227;-82
2021/04/28 05:48:29;;;;;;;15.17;13.57;;;;;;;10.59;62.56;98712.97;5011007;28;20231;-82
2021/04/28 05:50:55;;;;;;;16.13;14.20;;;;;;;10.65;62.46;98699.66;4994244;28;20235;-82
2021/04/28 05:53:22;;;;;;;15.73;14.03;;;;;;;11.01;61.16;98726.03;5010864;28;20231;-82
2021/04/28 05:55:51;;;;;;;16.70;13.40;;;;;;;11.07;60.44;98711.63;5011143;28;20565;-82
2021/04/28 05:58:17;;;;;;;14.80;12.77;;;;;;;11.25;60.12;98716.72;5010502;28;20227;-83
2021/04/28 06:00:49;;;;;;;15.40;12.87;;;;;;;11.41;59.42;98709.72;4978357;28;20239;-83
2021/04/28 06:03:18;;;;;;;16.27;12.40;;;;;;;11.57;58.68;98718.78;5012536;28;20231;-83
2021/04/28 06:05:50;;;;;;;15.20;12.47;;;;;;;11.65;57.97;98723.72;4993891;28;20654;-83
2021/04/28 06:08:18;;;;;;;14.37;12.00;;;;;;;11.79;57.89;98720.47;4993081;28;20306;-83
2021/04/28 06:10:47;;;;;;;12.93;11.50;;;;;;;11.83;56.87;98723.44;4979260;28;20634;-83
2021/04/28 06:13:16;;;;;;;14.30;11.07;;;;;;;11.91;56.59;98707.72;5011963;28;20259;-83
2021/04/28 06:15:50;;;;;;;12.63;10.13;;;;;;;12.05;54.90;98712.69;5012601;28;20219;-83
2021/04/28 06:18:17;;;;;;;12.13;10.00;;;;;;;12.17;54.55;98721.44;5012038;28;20223;-83
2021/04/28 06:20:44;;;;;;;11.90;9.83;;;;;;;12.26;54.24;98720.75;5013104;28;20229;-82
2021/04/28 06:23:15;;;;;;;14.00;10.40;;;;;;;12.21;53.89;98701.06;5012217;28;20266;-82
2021/04/28 06:25:46;;;;;;;13.00;10.27;;;;;;;12.35;53.12;98715.72;5011648;28;20222;-82
2021/04/28 06:28:13;;;;;;;16.13;11.07;;;;;;;12.25;53.48;98707.56;4991984;28;20234;-80
2021/04/28 06:30:46;;;;;;;14.37;11.33;;;;;;;12.47;52.88;98724.44;4998903;23;20239;-79
2021/04/28 06:33:51;;;;;;;17.77;12.30;;;;;;;12.58;52.84;98712.75;5000546;23;20660;-79
2021/04/28 06:40:57;;;;;;;12.37;11.10;;;;;;;12.64;52.05;98705.53;5139577;22;20537;-77
2021/04/28 06:44:47;;;;;;;15.50;10.37;;;;;;;12.76;51.24;98709.69;5497610;22;20236;31
2021/04/28 06:48:21;;;;;;;12.90;11.37;;;;;;;12.83;51.58;98700.59;5098122;22;20600;-77
2021/04/28 06:56:24;;;;;;;12.23;9.90;;;;;;;13.11;50.91;98711.06;5181951;22;20218;-76
2021/04/28 07:00:20;;;;;;;10.73;9.63;;;;;;;13.03;50.12;98701.56;5060753;23;20601;-77
2021/04/28 07:04:43;;;;;;;10.90;8.73;;;;;;;13.20;49.17;98704.91;5055959;22;20229;-78
2021/04/28 07:07:39;;;;;;;9.90;8.90;;;;;;;13.39;48.67;98715.28;5102137;22;20774;-77
2021/04/28 07:11:18;;;;;;;11.90;8.57;;;;;;;13.47;48.00;98696.78;5076347;22;20212;-77
2021/04/28 07:18:19;;;;;;;10.53;8.53;;;;;;;13.55;47.36;98673.94;5228547;22;20208;-81
2021/04/28 07:21:26;;;;;;;12.73;9.17;;;;;;;13.68;46.31;98676.94;5092270;28;20216;-78
2021/04/28 07:24:00;;;;;;;12.23;8.87;;;;;;;13.70;46.80;98689.34;5068399;28;20225;-79
2021/04/28 07:26:31;;;;;;;10.93;8.63;;;;;;;13.65;47.03;98708.97;5083681;28;20224;-79
2021/04/28 07:29:43;;;;;;;11.27;8.87;;;;;;;13.68;46.78;98676.13;5089227;22;20238;-77
2021/04/28 07:33:28;;;;;;;10.30;8.87;;;;;;;13.80;47.20;98717.13;5058036;22;20213;-77
2021/04/28 07:36:34;;;;;;;17.67;8.97;;;;;;;14.02;46.30;98714.25;5095868;22;20249;-77
2021/04/28 07:40:31;;;;;;;10.83;8.00;;;;;;;13.96;46.36;98712.59;5066398;23;20228;-79
2021/04/28 07:43:28;;;;;;;9.97;7.83;;;;;;;14.00;46.72;98711.00;5078573;28;20236;-80
2021/04/28 07:46:27;;;;;;;10.53;8.30;;;;;;;14.09;47.04;98712.91;5173793;23;20255;-80
2021/04/28 07:49:21;;;;;;;9.87;8.20;;;;;;;14.08;46.35;98708.63;5160616;23;20605;-77
2021/04/28 07:51:59;;;;;;;10.23;7.93;;;;;;;14.11;46.46;98702.69;5176312;23;20321;-80
2021/04/28 07:54:39;;;;;;;10.33;7.70;;;;;;;14.10;46.43;98711.03;5056873;28;20271;-79
2021/04/28 07:57:18;;;;;;;9.33;7.40;;;;;;;14.05;46.82;98692.97;5053799;28;20643;-79
2021/04/28 07:59:54;;;;;;;9.53;7.73;;;;;;;14.28;46.72;98717.81;5072050;28;20229;-78
2021/04/28 08:03:34;;;;;;;8.37;7.17;;;;;;;14.37;46.79;98710.91;5056818;28;20215;-78
2021/04/28 08:06:46;;;;;;;8.00;7.17;;;;;;;14.60;47.02;98712.28;5035708;23;20225;-77
2021/04/28 08:10:18;;;;;;;8.53;7.10;;;;;;;14.72;45.72;98713.63;5096468;23;20221;-76
2021/04/28 08:13:45;;;;;;;9.30;7.20;;;;;;;14.69;45.23;98714.19;5008919;22;20240;-77
2021/04/28 08:16:21;;;;;;;12.23;6.80;;;;;;;14.81;44.88;98705.81;5095928;22;20321;-79
2021/04/28 08:18:52;;;;;;;7.50;6.70;;;;;;;14.87;45.51;98715.53;5029197;28;20225;-79
2021/04/28 08:21:45;;;;;;;8.50;6.80;;;;;;;14.88;45.82;98717.94;5063754;22;20245;-78
2021/04/28 08:24:23;;;;;;;7.97;6.67;;;;;;;14.88;45.65;98717.16;5069657;28;20217;-78
2021/04/28 08:27:21;;;;;;;8.67;6.83;;;;;;;14.95;46.48;98702.31;5088844;22;20238;-78
2021/04/28 08:30:39;;;;;;;6.63;6.00;;;;;;;14.91;46.18;98695.03;5060570;23;20222;-78
2021/04/28 08:34:20;;;;;;;7.13;6.30;;;;;;;15.18;45.41;98711.75;5058724;28;20233;-78
2021/04/28 08:37:27;;;;;;;5.97;5.30;;;;;;;15.23;45.78;98702.84;5146207;22;20225;-77
2021/04/28 08:41:06;;;;;;;8.33;5.73;;;;;;;15.31;45.40;98697.69;5038319;22;20260;-77
2021/04/28 08:44:11;;;;;;;12.47;7.83;;;;;;;15.44;46.05;98701.72;5084071;23;20240;-78
2021/04/28 08:51:10;;;;;;;8.03;6.97;;;;;;;15.52;45.06;98693.09;4978990;23;20225;-77
2021/04/28 08:54:54;;;;;;;7.53;6.10;;;;;;;15.44;44.71;98699.03;5094890;23;20244;-78
2021/04/28 08:58:24;;;;;;;6.33;5.63;;;;;;;15.50;45.17;98694.41;5167713;23;20251;-77
2021/04/28 09:02:12;;;;;;;9.93;6.20;;;;;;;15.56;45.78;98696.88;5055477;28;20269;-77
2021/04/28 09:05:16;;;;;;;7.03;6.07;;;;;;;15.76;45.15;98687.91;5056330;28;20230;-78
2021/04/28 09:08:32;;;;;;;8.73;7.23;;;;;;;15.76;44.80;98680.59;5078460;23;20237;-78
2021/04/28 09:12:03;;;;;;;8.70;5.87;;;;;;;15.70;45.76;98691.69;5035518;28;20226;-77
2021/04/28 09:15:48;;;;;;;7.73;5.93;;;;;;;15.87;45.09;98684.06;5042008;23;20385;-77
2021/04/28 09:20:17;;;;;;;8.63;6.40;;;;;;;16.11;44.88;98682.31;5248822;23;20205;-82
2021/04/28 09:24:12;;;;;;;10.13;6.57;;;;;;;16.15;44.69;98694.19;5070223;23;20258;-81
2021/04/28 09:28:00;;;;;;;6.57;5.97;;;;;;;16.12;44.44;98694.75;5077693;23;20556;-87
2021/04/28 09:31:23;;;;;;;7.77;6.67;;;;;;;16.38;44.57;98692.72;5081088;28;20315;-88
2021/04/28 09:33:55;;;;;;;8.63;7.53;;;;;;;16.35;44.66;98660.84;5075231;28;20241;-87
2021/04/28 09:36:34;;;;;;;7.00;5.87;;;;;;;16.52;44.36;98687.47;5041015;28;20625;-85
2021/04/28 09:39:12;;;;;;;8.10;5.47;;;;;;;16.63;43.28;98681.75;5051108;28;20317;-89
2021/04/28 09:41:47;;;;;;;5.97;4.63;;;;;;;16.68;43.58;98681.72;5037993;28;20307;-89
2021/04/28 09:44:16;;;;;;;5.80;4.33;;;;;;;16.85;43.08;98689.44;5045806;28;20233;-87
2021/04/28 09:47:00;;;;;;;6.40;5.70;;;;;;;16.98;43.63;98677.19;5075395;28;20644;-87
2021/04/28 09:49:51;;;;;;;7.53;5.47;;;;;;;16.94;43.47;98660.69;5075200;28;20310;-87
2021/04/28 09:52:24;;;;;;;6.73;5.03;;;;;;;16.90;42.13;98675.88;5057525;28;20228;-88
2021/04/28 09:54:52;;;;;;;6.00;5.00;;;;;;;16.81;42.77;98666.75;5056846;28;20259;-88
2021/04/28 09:57:33;;;;;;;7.87;4.60;;;;;;;16.92;42.66;98678.31;5057615;28;20730;-89
2021/04/28 10:00:00;;;;;;;6.57;4.77;;;;;;;16.88;42.74;98677.25;5041445;28;20255;-88
2021/04/28 10:02:31;;;;;;;7.00;5.20;;;;;;;16.83;43.14;98680.81;5057584;28;20288;-86
2021/04/28 10:05:22;;;;;;;5.10;4.50;;;;;;;16.95;42.59;98675.81;5074255;28;20238;-88
2021/04/28 10:08:13;;;;;;;5.17;4.10;;;;;;;17.12;42.14;98664.59;5057912;28;20322;-86
2021/04/28 10:10:40;;;;;;;6.63;4.20;;;;;;;17.25;41.86;98677.47;5057280;28;20228;-86
2021/04/28 10:13:11;;;;;;;7.47;4.37;;;;;;;17.29;42.35;98667.66;5072634;28;20530;-87
2021/04/28 10:15:38;;;;;;;4.23;3.73;;;;;;;17.31;41.74;98665.47;5040744;28;20251;-84
2021/04/28 10:18:07;;;;;;;5.57;4.30;;;;;;;17.26;41.72;98651.19;5056598;28;20230;-86
2021/04/28 10:20:34;;;;;;;4.60;3.73;;;;;;;17.28;42.07;98657.94;5074024;28;20225;-87
2021/04/28 10:23:05;;;;;;;4.43;3.60;;;;;;;17.41;41.65;98673.50;5057221;28;20225;-87
2021/04/28 10:25:33;;;;;;;3.30;3.00;;;;;;;17.58;40.97;98659.50;5057493;28;20231;-86
2021/04/28 10:28:01;;;;;;;5.20;4.10;;;;;;;17.60;41.38;98668.97;5040364;28;20228;-87
2021/04/28 10:30:27;;;;;;;5.27;4.60;;;;;;;17.73;41.61;98651.22;5053419;28;20275;-86
2021/04/28 10:32:56;;;;;;;5.40;3.80;;;;;;;17.81;41.25;98656.00;5024604;28;20221;-86
2021/04/28 10:35:28;;;;;;;5.57;4.13;;;;;;;17.87;40.17;98662.19;5044992;28;20244;-86
2021/04/28 10:37:55;;;;;;;5.23;3.70;;;;;;;17.93;40.32;98652.88;5037459;28;20259;-89
2021/04/28 10:40:23;;;;;;;7.00;4.40;;;;;;;17.97;40.72;98638.44;5069430;28;20704;-91
2021/04/28 10:42:51;;;;;;;7.20;5.57;;;;;;;18.20;41.67;98653.03;5053577;28;20247;-91
2021/04/28 10:45:23;;;;;;;5.30;4.80;;;;;;;18.25;40.87;98644.84;5062127;28;20224;-93
2021/04/28 10:47:51;;;;;;;4.57;4.17;;;;;;;18.42;39.65;98649.75;5073878;28;20577;-84
2021/04/28 10:50:45;;;;;;;4.27;3.80;;;;;;;18.61;39.89;98653.28;5053238;28;20217;-84
2021/04/28 10:53:23;;;;;;;5.97;4.90;;;;;;;18.73;39.06;98639.25;5050868;28;20228;-85
2021/04/28 10:55:59;;;;;;;5.03;4.53;;;;;;;18.66;39.08;98646.97;5066038;28;20221;-82
2021/04/28 10:58:26;;;;;;;5.37;4.17;;;;;;;18.63;39.53;98637.50;5072867;28;20247;-83
2021/04/28 11:00:59;;;;;;;4.80;4.40;;;;;;;18.46;39.82;98637.22;5062098;28;20237;-82
2021/04/28 11:03:36;;;;;;;4.73;4.00;;;;;;;18.29;39.82;98621.44;5053168;28;20278;-81
2021/04/28 11:06:24;;;;;;;5.60;4.50;;;;;;;18.37;40.28;98636.28;5064677;28;20248;-85
2021/04/28 11:08:53;;;;;;;4.17;3.77;;;;;;;18.44;40.43;98625.84;5073267;28;20248;-83
2021/04/28 11:11:39;;;;;;;5.10;3.90;;;;;;;18.56;40.23;98628.97;5059708;28;20232;-84
2021/04/28 11:14:11;;;;;;;4.80;4.40;;;;;;;18.66;39.82;98601.66;5054029;28;20233;-82
2021/04/28 11:17:16;;;;;;;5.63;4.63;;;;;;;18.77;40.57;98618.56;5071096;28;20648;-83
2021/04/28 11:19:43;;;;;;;5.57;4.13;;;;;;;18.79;39.59;98597.38;5073150;28;20669;-83
2021/04/28 11:22:18;;;;;;;5.23;4.00;;;;;;;19.22;39.07;98611.53;5053473;28;20226;-84
2021/04/28 11:24:58;;;;;;;9.23;3.80;;;;;;;19.23;38.61;98610.41;5053565;28;20566;-85
2021/04/28 11:27:54;;;;;;;6.67;4.73;;;;;;;19.19;38.95;98610.22;5057607;28;20237;-82
2021/04/28 11:30:23;;;;;;;5.53;3.77;;;;;;;19.40;38.73;98604.41;5075849;28;20296;-82
2021/04/28 11:33:08;;;;;;;4.23;3.83;;;;;;;19.29;38.31;98606.50;5076747;28;20307;-82
2021/04/28 11:35:36;;;;;;;4.20;3.80;;;;;;;19.27;38.30;98608.72;5076554;28;20639;-84
2021/04/28 11:38:14;;;;;;;4.10;3.60;;;;;;;19.19;38.58;98609.41;5092954;28;20255;-85
2021/04/28 11:40:55;;;;;;;4.90;3.67;;;;;;;19.18;39.21;98600.44;5093469;28;20277;-84
2021/04/28 11:43:24;;;;;;;5.70;3.40;;;;;;;19.26;39.34;98588.91;5076609;28;20232;-80
2021/04/28 11:45:51;;;;;;;3.57;3.03;;;;;;;19.31;39.05;98586.09;5088692;28;20234;-82
2021/04/28 11:48:20;;;;;;;6.03;3.50;;;;;;;19.30;39.16;98580.97;5039489;28;20226;-83
2021/04/28 11:50:50;;;;;;;5.40;4.10;;;;;;;19.46;38.53;98593.16;5076481;28;20247;-83
2021/04/28 11:53:16;;;;;;;6.07;4.00;;;;;;;19.36;38.52;98590.63;5077483;28;20248;-84
2021/04/28 11:55:43;;;;;;;3.80;3.50;;;;;;;19.24;39.19;98580.25;5060541;28;20317;-83
2021/04/28 11:58:29;;;;;;;4.17;3.60;;;;;;;19.30;38.90;98589.91;5092471;28;20236;-82
2021/04/28 12:01:03;;;;;;;4.40;3.70;;;;;;;19.46;38.90;98590.44;5074044;28;20217;-81
2021/04/28 12:03:49;;;;;;;3.80;3.50;;;;;;;19.40;38.39;98590.81;5039554;28;20229;-82
2021/04/28 12:06:32;;;;;;;4.63;3.70;;;;;;;19.55;38.54;98593.25;5061565;28;20216;-82
2021/04/28 12:09:23;;;;;;;4.30;3.90;;;;;;;19.74;38.66;98588.50;5076100;28;20224;-82
2021/04/28 12:12:07;;;;;;;4.67;3.67;;;;;;;19.88;37.50;98592.00;5054333;28;20224;-83
2021/04/28 12:14:33;;;;;;;3.63;3.33;;;;;;;20.20;38.06;98591.81;5055743;28;20221;-82
2021/04/28 12:17:00;;;;;;;3.77;3.40;;;;;;;20.27;37.34;98571.53;5065814;28;20228;-84
2021/04/28 12:19:34;;;;;;;5.03;3.60;;;;;;;20.43;37.17;98564.66;5076943;28;20693;-84
2021/04/28 12:22:08;;;;;;;7.37;3.23;;;;;;;20.51;37.16;98574.81;5059137;28;20229;-79
2021/04/28 12:24:40;;;;;;;4.70;4.07;;;;;;;20.40;36.80;98571.53;5075899;28;20705;-81
2021/04/28 12:27:36;;;;;;;4.60;3.50;;;;;;;20.45;37.36;98562.44;5066030;28;20506;-81
2021/04/28 12:30:05;;;;;;;4.00;3.37;;;;;;;20.54;37.29;98563.28;5054162;28;20221;-82
2021/04/28 12:32:40;;;;;;;4.90;3.53;;;;;;;20.66;36.64;98558.09;5068106;28;20235;-82
2021/04/28 12:35:18;;;;;;;5.20;2.90;;;;;;;20.70;36.13;98569.97;5075785;28;20228;-82
2021/04/28 12:37:57;;;;;;;3.90;3.23;;;;;;;20.78;36.42;98552.88;5078647;28;20229;-82
2021/04/28 12:40:46;;;;;;;3.60;3.30;;;;;;;20.92;36.59;98558.22;5056300;28;20229;-83
2021/04/28 12:43:17;;;;;;;4.30;4.00;;;;;;;20.92;36.04;98555.50;5066697;28;20628;-83
2021/04/28 12:46:05;;;;;;;3.83;3.37;;;;;;;21.06;35.88;98561.66;5075279;28;20534;-83
2021/04/28 12:48:51;;;;;;;4.67;3.47;;;;;;;21.16;36.01;98557.91;5041861;28;20228;-82
2021/04/28 12:51:18;;;;;;;7.23;3.30;;;;;;;20.87;36.23;98548.28;5075296;28;20510;-82
2021/04/28 12:53:44;;;;;;;4.33;3.17;;;;;;;20.76;36.75;98521.66;5073506;28;20229;-82
2021/04/28 12:56:11;;;;;;;4.93;3.77;;;;;;;20.90;36.20;98553.09;5074813;28;20576;-80
2021/04/28 12:58:44;;;;;;;5.33;3.23;;;;;;;20.85;36.21;98555.97;5091739;28;20241;-82
2021/04/28 13:01:18;;;;;;;3.53;3.23;;;;;;;20.81;36.42;98519.56;5074942;28;20536;-82
2021/04/28 13:03:45;;;;;;;5.47;3.13;;;;;;;20.78;36.70;98527.56;5055935;28;20260;-82
2021/04/28 13:06:22;;;;;;;2.77;2.57;;;;;;;20.86;36.94;98540.41;5054288;28;20233;-82
2021/04/28 13:08:49;;;;;;;4.20;2.83;;;;;;;20.97;36.43;98533.59;5056469;28;20217;-83